createdAt,value
2017-07-26T00:01:34.049Z,91.90
2017-07-26T00:04:01.587Z,91.90
2017-07-26T00:06:29.139Z,91.90
2017-07-26T00:08:56.735Z,91.80
2017-07-26T00:11:24.286Z,91.90
2017-07-26T00:13:51.850Z,91.70
2017-07-26T00:16:19.393Z,92.10
2017-07-26T00:18:46.961Z,92.20
2017-07-26T00:21:14.538Z,92.10
2017-07-26T00:23:42.077Z,92.20
2017-07-26T00:26:09.620Z,92.20
2017-07-26T00:28:37.192Z,92.10
2017-07-26T00:31:04.734Z,92.10
2017-07-26T00:33:32.302Z,92.30
2017-07-26T00:35:59.871Z,92.30
2017-07-26T00:38:27.409Z,92.30
2017-07-26T00:40:54.990Z,92.50
2017-07-26T00:43:22.531Z,92.80
2017-07-26T00:45:50.062Z,92.50
2017-07-26T00:48:18.393Z,92.60
2017-07-26T00:50:45.971Z,92.60
2017-07-26T00:53:13.506Z,92.40
2017-07-26T00:55:41.049Z,92.50
2017-07-26T00:58:08.636Z,92.70
2017-07-26T01:00:36.177Z,92.80
2017-07-26T01:03:03.710Z,92.60
2017-07-26T01:05:31.282Z,92.30
2017-07-26T01:07:58.820Z,92.60
2017-07-26T01:10:27.165Z,92.80
2017-07-26T01:12:54.703Z,92.80
2017-07-26T01:15:22.237Z,92.60
2017-07-26T01:17:49.830Z,92.40
2017-07-26T01:20:17.365Z,92.40
2017-07-26T01:22:44.902Z,92.50
2017-07-26T01:25:12.481Z,92.50
2017-07-26T01:27:40.023Z,92.60
2017-07-26T01:30:07.566Z,92.50
2017-07-26T01:32:35.899Z,92.40
2017-07-26T01:35:03.438Z,92.40
2017-07-26T01:37:31.006Z,92.40
2017-07-26T01:39:58.546Z,92.60
2017-07-26T01:42:26.116Z,92.50
2017-07-26T01:44:53.683Z,92.50
2017-07-26T01:47:21.214Z,92.60
2017-07-26T01:49:48.828Z,92.50
2017-07-26T01:52:16.364Z,92.50
2017-07-26T01:54:43.943Z,92.40
2017-07-26T01:57:11.480Z,92.50
2017-07-26T01:59:39.024Z,92.30
2017-07-26T02:02:06.603Z,92.40
2017-07-26T02:04:34.138Z,92.50
2017-07-26T02:07:01.678Z,92.30
2017-07-26T02:09:30.030Z,92.40
2017-07-26T02:11:57.564Z,92.40
2017-07-26T02:14:25.101Z,92.30
2017-07-26T02:16:52.673Z,92.30
2017-07-26T02:19:20.215Z,92.30
2017-07-26T02:21:47.789Z,92.40
2017-07-26T02:24:15.325Z,92.60
2017-07-26T02:26:43.654Z,92.50
2017-07-26T02:29:11.195Z,92.50
2017-07-26T02:31:38.780Z,92.50
2017-07-26T02:34:06.319Z,92.20
2017-07-26T02:36:33.857Z,92.30
2017-07-26T02:39:01.430Z,92.10
2017-07-26T02:41:28.976Z,92.20
2017-07-26T02:43:56.554Z,92.20
2017-07-26T02:46:24.090Z,92.20
2017-07-26T02:48:51.625Z,92.30
2017-07-26T02:51:19.962Z,92.30
2017-07-26T02:53:47.542Z,92.00
2017-07-26T02:56:15.078Z,92.10
2017-07-26T02:58:42.617Z,92.00
2017-07-26T03:01:10.199Z,92.20
2017-07-26T03:03:37.739Z,92.40
2017-07-26T03:06:05.277Z,92.20
2017-07-26T03:08:32.855Z,92.20
2017-07-26T03:11:00.396Z,92.30
2017-07-26T03:13:27.939Z,92.10
2017-07-26T03:15:56.274Z,92.20
2017-07-26T03:18:23.812Z,92.10
2017-07-26T03:20:51.386Z,92.10
2017-07-26T03:23:18.932Z,92.30
2017-07-26T03:25:46.469Z,92.40
2017-07-26T03:28:14.806Z,92.10
2017-07-26T03:30:42.375Z,92.10
2017-07-26T03:33:09.910Z,92.20
2017-07-26T03:35:37.478Z,92.00
2017-07-26T03:38:05.025Z,92.00
2017-07-26T03:40:32.599Z,92.20
2017-07-26T03:43:00.183Z,92.10
2017-07-26T03:45:27.724Z,92.30
2017-07-26T03:47:55.262Z,92.20
2017-07-26T03:50:22.845Z,92.20
2017-07-26T03:52:50.383Z,92.30
2017-07-26T03:55:17.922Z,92.30
2017-07-26T03:57:45.487Z,92.10
2017-07-26T04:00:13.027Z,92.20
2017-07-26T04:02:40.608Z,92.20
2017-07-26T04:05:08.150Z,92.30
2017-07-26T04:07:35.690Z,92.00
2017-07-26T04:10:04.035Z,92.20
2017-07-26T04:12:31.574Z,92.20
2017-07-26T04:14:59.107Z,92.00
2017-07-26T04:17:26.680Z,92.00
2017-07-26T04:19:54.226Z,92.10
2017-07-26T04:22:21.759Z,92.10
2017-07-26T04:24:50.090Z,91.90
2017-07-26T04:27:17.681Z,91.90
2017-07-26T04:29:45.222Z,91.90
2017-07-26T04:32:12.789Z,91.90
2017-07-26T04:34:40.327Z,92.00
2017-07-26T04:37:07.899Z,91.90
2017-07-26T04:39:35.506Z,91.90
2017-07-26T04:42:03.805Z,91.90
2017-07-26T04:44:32.674Z,91.90
2017-07-26T04:47:01.009Z,92.00
2017-07-26T04:49:28.581Z,92.00
2017-07-26T04:51:56.118Z,92.00
2017-07-26T04:54:23.658Z,92.00
2017-07-26T04:56:51.237Z,92.10
2017-07-26T04:59:18.815Z,92.00
2017-07-26T05:01:46.355Z,92.00
2017-07-26T05:04:13.896Z,92.10
2017-07-26T05:06:41.469Z,91.80
2017-07-26T05:09:09.042Z,91.90
2017-07-26T05:11:36.623Z,91.90
2017-07-26T05:14:04.172Z,91.90
2017-07-26T05:16:31.708Z,91.80
2017-07-26T05:18:59.288Z,91.50
2017-07-26T05:21:26.831Z,91.10
2017-07-26T05:23:54.373Z,91.00
2017-07-26T05:26:21.943Z,90.90
2017-07-26T05:28:49.589Z,91.20
2017-07-26T05:31:17.127Z,91.30
2017-07-26T05:33:45.444Z,90.80
2017-07-26T05:36:13.030Z,90.80
2017-07-26T05:38:40.566Z,90.70
2017-07-26T05:41:08.107Z,90.90
2017-07-26T05:43:35.682Z,90.90
2017-07-26T05:46:03.221Z,90.80
2017-07-26T05:48:30.779Z,90.90
2017-07-26T05:50:58.354Z,90.80
2017-07-26T05:53:26.486Z,91.00
2017-07-26T05:55:54.061Z,90.90
2017-07-26T05:58:22.404Z,90.90
2017-07-26T06:00:49.942Z,90.80
2017-07-26T06:03:17.485Z,90.70
2017-07-26T06:05:45.062Z,90.60
2017-07-26T06:08:12.600Z,90.60
2017-07-26T06:10:40.135Z,90.60
2017-07-26T06:13:07.756Z,90.60
2017-07-26T06:15:35.300Z,90.10
2017-07-26T06:18:03.657Z,90.20
2017-07-26T06:20:31.242Z,90.40
2017-07-26T06:22:58.781Z,90.00
2017-07-26T06:25:26.319Z,90.20
2017-07-26T06:27:54.781Z,90.20
2017-07-26T06:30:23.091Z,90.10
2017-07-26T06:32:50.622Z,90.10
2017-07-26T06:35:18.276Z,90.00
2017-07-26T06:37:46.798Z,90.10
2017-07-26T06:40:14.341Z,90.10
2017-07-26T06:42:42.677Z,89.60
2017-07-26T06:45:10.262Z,89.60
2017-07-26T06:47:37.805Z,89.50
2017-07-26T06:50:05.346Z,90.00
2017-07-26T06:52:32.926Z,89.80
2017-07-26T06:55:00.468Z,89.90
2017-07-26T06:57:28.004Z,90.10
2017-07-26T06:59:55.598Z,90.20
2017-07-26T07:02:23.135Z,90.00
2017-07-26T07:04:50.701Z,89.40
2017-07-26T07:07:18.282Z,89.30
2017-07-26T07:09:45.828Z,89.60
2017-07-26T07:12:13.367Z,88.50
2017-07-26T07:14:40.942Z,88.00
2017-07-26T07:17:08.486Z,86.40
2017-07-26T07:19:36.026Z,86.20
2017-07-26T07:22:03.603Z,86.60
2017-07-26T07:24:31.167Z,85.80
2017-07-26T07:26:58.745Z,85.80
2017-07-26T07:29:26.286Z,85.10
2017-07-26T07:31:53.830Z,84.80
2017-07-26T07:34:21.438Z,85.30
2017-07-26T07:36:48.974Z,85.60
2017-07-26T07:39:16.511Z,85.50
2017-07-26T07:41:44.086Z,86.10
2017-07-26T07:44:11.628Z,86.50
2017-07-26T07:46:39.211Z,86.60
2017-07-26T07:49:06.750Z,86.60
2017-07-26T07:51:34.285Z,86.20
2017-07-26T07:54:01.945Z,85.60
2017-07-26T07:56:29.531Z,86.10
2017-07-26T07:58:57.485Z,86.00
2017-07-26T08:01:27.392Z,87.30
2017-07-26T08:03:55.734Z,86.60
2017-07-26T08:06:23.302Z,86.60
2017-07-26T08:08:51.007Z,86.50
2017-07-26T08:11:18.708Z,85.70
2017-07-26T08:13:46.364Z,86.40
2017-07-26T08:16:13.897Z,85.40
2017-07-26T08:18:42.961Z,85.80
2017-07-26T08:21:11.173Z,84.70
2017-07-26T08:23:39.460Z,84.00
2017-07-26T08:26:07.540Z,84.50
2017-07-26T08:28:42.058Z,84.40
2017-07-26T08:31:11.255Z,84.20
2017-07-26T08:33:42.095Z,84.50
2017-07-26T08:36:11.722Z,84.30
2017-07-26T08:38:42.845Z,83.50
2017-07-26T08:41:13.550Z,83.20
2017-07-26T08:43:42.821Z,81.90
2017-07-26T08:46:11.848Z,80.00
2017-07-26T08:48:41.182Z,80.50
2017-07-26T08:51:11.419Z,80.40
2017-07-26T08:53:40.375Z,80.30
2017-07-26T08:56:11.448Z,78.60
2017-07-26T08:58:41.050Z,78.60
2017-07-26T09:01:11.258Z,78.10
2017-07-26T09:03:42.010Z,79.00
2017-07-26T09:06:13.266Z,77.90
2017-07-26T09:08:42.859Z,77.90
2017-07-26T09:11:13.704Z,79.20
2017-07-26T09:13:45.428Z,79.20
2017-07-26T09:16:16.974Z,79.20
2017-07-26T09:18:47.129Z,80.00
2017-07-26T09:21:17.130Z,79.80
2017-07-26T09:23:47.198Z,79.50
2017-07-26T09:26:16.504Z,79.20
2017-07-26T09:28:45.392Z,77.50
2017-07-26T09:31:13.230Z,77.30
2017-07-26T09:33:40.976Z,75.70
2017-07-26T09:36:08.746Z,75.00
2017-07-26T09:38:36.586Z,75.20
2017-07-26T09:41:04.333Z,74.90
2017-07-26T09:43:32.835Z,76.10
2017-07-26T09:46:01.793Z,75.80
2017-07-26T09:48:29.926Z,77.00
2017-07-26T09:50:58.437Z,74.80
2017-07-26T09:53:26.081Z,73.20
2017-07-26T09:55:53.639Z,73.30
2017-07-26T09:58:21.241Z,72.60
2017-07-26T10:00:49.565Z,71.90
2017-07-26T10:03:17.147Z,71.90
2017-07-26T10:05:44.754Z,70.20
2017-07-26T10:08:12.293Z,71.90
2017-07-26T10:10:39.852Z,69.90
2017-07-26T10:13:08.238Z,67.80
2017-07-26T10:15:36.582Z,68.50
2017-07-26T10:18:04.145Z,68.50
2017-07-26T10:20:31.726Z,69.10
2017-07-26T10:23:00.086Z,68.00
2017-07-26T10:25:27.650Z,67.90
2017-07-26T10:27:55.207Z,67.00
2017-07-26T10:30:23.037Z,67.10
2017-07-26T10:32:50.611Z,63.60
2017-07-26T10:35:18.160Z,63.20
2017-07-26T10:37:45.742Z,64.40
2017-07-26T10:40:13.486Z,64.60
2017-07-26T10:42:41.085Z,64.60
2017-07-26T10:45:08.658Z,62.90
2017-07-26T10:47:37.028Z,62.70
2017-07-26T10:50:04.563Z,62.60
2017-07-26T10:52:32.094Z,61.40
2017-07-26T10:54:59.681Z,61.60
2017-07-26T10:57:27.219Z,62.10
2017-07-26T10:59:54.755Z,62.50
2017-07-26T11:02:22.332Z,60.00
2017-07-26T11:04:49.866Z,61.20
2017-07-26T11:07:17.414Z,61.10
2017-07-26T11:09:44.983Z,60.20
2017-07-26T11:12:13.278Z,59.10
2017-07-26T11:14:40.824Z,59.10
2017-07-26T11:17:08.390Z,58.80
2017-07-26T11:19:35.928Z,59.20
2017-07-26T11:22:03.511Z,59.30
2017-07-26T11:24:31.074Z,58.30
2017-07-26T11:26:58.621Z,57.30
2017-07-26T11:29:26.201Z,59.40
2017-07-26T11:31:53.735Z,59.20
2017-07-26T11:34:22.062Z,58.00
2017-07-26T11:36:49.639Z,57.90
2017-07-26T11:39:17.198Z,57.70
2017-07-26T11:41:44.771Z,57.00
2017-07-26T11:44:12.309Z,55.60
2017-07-26T11:46:39.899Z,56.30
2017-07-26T11:49:07.495Z,54.90
2017-07-26T11:51:35.069Z,56.50
2017-07-26T11:54:02.654Z,55.70
2017-07-26T11:56:30.208Z,55.60
2017-07-26T11:58:57.833Z,55.30
2017-07-26T12:01:25.436Z,55.20
2017-07-26T12:03:52.969Z,55.80
2017-07-26T12:06:20.497Z,56.20
2017-07-26T12:08:48.113Z,55.80
2017-07-26T12:11:15.652Z,53.50
2017-07-26T12:13:43.197Z,54.40
2017-07-26T12:16:12.613Z,54.50
2017-07-26T12:18:42.882Z,54.10
2017-07-26T12:21:10.989Z,54.10
2017-07-26T12:23:38.702Z,54.20
2017-07-26T12:26:06.472Z,56.20
2017-07-26T12:28:34.340Z,53.70
2017-07-26T12:31:02.476Z,53.50
2017-07-26T12:33:30.470Z,54.10
2017-07-26T12:35:59.338Z,54.60
2017-07-26T12:38:27.920Z,54.50
2017-07-26T12:40:57.097Z,54.50
2017-07-26T12:43:24.811Z,54.50
2017-07-26T12:45:52.605Z,53.20
2017-07-26T12:48:20.232Z,55.00
2017-07-26T12:50:47.774Z,54.30
2017-07-26T12:53:15.562Z,55.30
2017-07-26T12:55:43.334Z,54.90
2017-07-26T12:58:17.115Z,54.60
2017-07-26T13:00:44.790Z,54.30
2017-07-26T13:03:12.339Z,54.30
2017-07-26T13:05:39.904Z,53.50
2017-07-26T13:08:07.442Z,53.50
2017-07-26T13:10:35.019Z,54.10
2017-07-26T13:13:02.565Z,52.80
2017-07-26T13:15:30.123Z,52.40
2017-07-26T13:17:57.710Z,51.10
2017-07-26T13:20:25.252Z,51.30
2017-07-26T13:22:52.806Z,51.20
2017-07-26T13:25:21.546Z,53.30
2017-07-26T13:27:49.795Z,50.00
2017-07-26T13:30:17.674Z,51.30
2017-07-26T13:32:45.259Z,50.70
2017-07-26T13:35:13.559Z,50.00
2017-07-26T13:37:41.104Z,49.90
2017-07-26T13:40:09.982Z,51.60
2017-07-26T13:42:38.296Z,51.10
2017-07-26T13:45:05.839Z,51.10
2017-07-26T13:47:33.418Z,51.90
2017-07-26T13:50:00.970Z,51.30
2017-07-26T13:52:28.563Z,51.40
2017-07-26T13:54:56.117Z,52.40
2017-07-26T13:57:23.714Z,51.10
2017-07-26T13:59:52.061Z,52.20
2017-07-26T14:02:19.609Z,52.10
2017-07-26T14:04:47.154Z,50.80
2017-07-26T14:07:14.754Z,51.30
2017-07-26T14:09:42.299Z,51.50
2017-07-26T14:12:09.852Z,52.40
2017-07-26T14:14:37.425Z,53.10
2017-07-26T14:17:04.973Z,52.00
2017-07-26T14:19:32.519Z,53.00
2017-07-26T14:22:00.089Z,51.80
2017-07-26T14:24:27.626Z,51.80
2017-07-26T14:26:55.158Z,51.40
2017-07-26T14:29:22.725Z,52.00
2017-07-26T14:31:50.286Z,51.60
2017-07-26T14:34:17.819Z,51.70
2017-07-26T14:36:46.165Z,51.20
2017-07-26T14:39:13.706Z,51.20
2017-07-26T14:41:41.238Z,51.00
2017-07-26T14:44:08.810Z,51.60
2017-07-26T14:46:36.341Z,51.50
2017-07-26T14:49:04.637Z,50.00
2017-07-26T14:51:32.205Z,50.00
2017-07-26T14:53:59.733Z,51.10
2017-07-26T14:56:27.297Z,50.00
2017-07-26T14:58:55.638Z,50.80
2017-07-26T15:01:23.165Z,50.80
2017-07-26T15:03:50.730Z,51.70
2017-07-26T15:06:18.257Z,50.80
2017-07-26T15:08:46.603Z,51.80
2017-07-26T15:11:14.135Z,51.80
2017-07-26T15:13:41.666Z,51.80
2017-07-26T15:16:09.242Z,51.70
2017-07-26T15:18:37.630Z,52.20
2017-07-26T15:21:05.162Z,51.20
2017-07-26T15:23:32.749Z,54.30
2017-07-26T15:26:00.274Z,52.40
2017-07-26T15:28:28.570Z,52.00
2017-07-26T15:30:56.169Z,52.00
2017-07-26T15:33:23.706Z,50.80
2017-07-26T15:35:51.245Z,50.80
2017-07-26T15:38:18.806Z,50.90
2017-07-26T15:40:46.335Z,50.40
2017-07-26T15:43:14.678Z,49.90
2017-07-26T15:45:42.205Z,49.80
2017-07-26T15:48:11.877Z,49.70
2017-07-26T15:50:39.454Z,50.30
2017-07-26T15:53:07.758Z,52.40
2017-07-26T15:55:35.286Z,51.90
2017-07-26T15:58:03.639Z,51.50
2017-07-26T16:00:31.175Z,51.50
2017-07-26T16:02:58.712Z,50.70
2017-07-26T16:05:26.887Z,51.50
2017-07-26T16:07:54.425Z,51.30
2017-07-26T16:10:22.002Z,51.30
2017-07-26T16:12:49.533Z,51.60
2017-07-26T16:15:17.062Z,51.00
2017-07-26T16:17:44.621Z,50.90
2017-07-26T16:20:12.150Z,50.90
2017-07-26T16:22:39.724Z,51.60
2017-07-26T16:25:07.259Z,51.30
2017-07-26T16:27:34.799Z,51.30
2017-07-26T16:30:02.375Z,51.10
2017-07-26T16:32:29.913Z,52.00
2017-07-26T16:34:58.211Z,51.40
2017-07-26T16:37:25.769Z,51.40
2017-07-26T16:39:54.207Z,50.60
2017-07-26T16:42:21.777Z,50.60
2017-07-26T16:44:49.310Z,50.80
2017-07-26T16:47:16.842Z,51.50
2017-07-26T16:49:44.407Z,53.60
2017-07-26T16:52:11.941Z,52.20
2017-07-26T16:54:39.507Z,51.90
2017-07-26T16:57:07.080Z,51.70
2017-07-26T16:59:34.642Z,50.20
2017-07-26T17:02:02.171Z,51.20
2017-07-26T17:04:30.146Z,50.10
2017-07-26T17:06:57.680Z,50.10
2017-07-26T17:09:25.209Z,49.60
2017-07-26T19:13:08.238Z,59.00
2017-07-26T19:15:35.993Z,59.00
2017-07-26T19:18:03.574Z,59.60
2017-07-26T19:20:31.101Z,59.90
2017-07-26T19:22:58.675Z,59.30
2017-07-26T19:25:26.215Z,59.20
2017-07-26T19:27:53.791Z,59.80
2017-07-26T19:30:21.359Z,59.90
2017-07-26T19:32:49.726Z,59.70
2017-07-26T19:35:17.297Z,60.20
2017-07-26T19:37:44.878Z,60.10
2017-07-26T19:40:12.463Z,59.80
2017-07-26T19:42:40.771Z,60.10
2017-07-26T19:45:08.304Z,60.10
2017-07-26T19:47:35.886Z,59.80
2017-07-26T19:50:03.426Z,60.20
2017-07-26T19:52:30.990Z,60.30
2017-07-26T19:54:58.870Z,59.90
2017-07-26T19:57:26.431Z,60.30
2017-07-26T19:59:54.002Z,60.00
2017-07-26T20:02:21.618Z,59.70
2017-07-26T20:04:49.958Z,60.60
2017-07-26T20:07:17.528Z,60.40
2017-07-26T20:09:45.844Z,60.70
2017-07-26T20:12:13.432Z,61.10
2017-07-26T20:14:41.137Z,61.40
2017-07-26T20:17:11.530Z,60.70
2017-07-26T20:19:39.109Z,61.10
2017-07-26T20:22:07.459Z,60.90
2017-07-26T20:24:35.032Z,60.90
2017-07-26T20:27:02.566Z,60.80
2017-07-26T20:29:30.127Z,61.10
2017-07-26T20:31:57.700Z,60.40
2017-07-26T20:34:25.242Z,61.20
2017-07-26T20:36:52.869Z,61.30
2017-07-26T20:39:21.176Z,61.40
2017-07-26T20:41:48.709Z,61.50
2017-07-26T20:44:16.278Z,62.10
2017-07-26T20:46:44.039Z,62.00
2017-07-26T20:49:11.615Z,61.20
2017-07-26T20:51:39.157Z,61.20
2017-07-26T20:54:06.702Z,62.00
2017-07-26T20:56:34.294Z,61.90
2017-07-26T20:59:01.830Z,62.50
2017-07-26T21:01:29.371Z,63.50
2017-07-26T21:03:57.038Z,65.10
2017-07-26T21:06:25.334Z,67.10
2017-07-26T21:08:52.882Z,67.10
2017-07-26T21:11:20.467Z,67.70
2017-07-26T21:13:47.995Z,68.00
2017-07-26T21:16:15.539Z,68.40
2017-07-26T21:18:44.078Z,69.40
2017-07-26T21:21:11.646Z,69.40
2017-07-26T21:23:39.229Z,69.70
2017-07-26T21:26:06.767Z,70.20
2017-07-26T21:28:34.302Z,70.50
2017-07-26T21:31:01.903Z,71.20
2017-07-26T21:33:29.438Z,71.30
2017-07-26T21:35:57.010Z,71.80
2017-07-26T21:38:24.545Z,72.20
2017-07-26T21:40:52.085Z,72.10
2017-07-26T21:43:19.663Z,71.80
2017-07-26T21:45:47.222Z,71.80
2017-07-26T21:48:14.767Z,71.60
2017-07-26T21:50:42.370Z,71.70
2017-07-26T21:53:09.902Z,72.30
2017-07-26T21:55:37.439Z,72.60
2017-07-26T21:58:05.491Z,73.30
2017-07-26T22:00:33.032Z,74.00
2017-07-26T22:03:00.573Z,73.80
2017-07-26T22:05:28.161Z,73.50
2017-07-26T22:07:55.702Z,73.70
2017-07-26T22:10:23.248Z,74.00
2017-07-26T22:12:50.822Z,74.10
2017-07-26T22:15:18.370Z,73.80
2017-07-26T22:17:45.954Z,73.70
2017-07-26T22:20:13.490Z,73.70
2017-07-26T22:22:41.793Z,74.70
2017-07-26T22:25:09.383Z,74.60
2017-07-26T22:27:36.931Z,75.10
2017-07-26T22:30:04.469Z,75.30
2017-07-26T22:32:32.070Z,75.60
2017-07-26T22:34:59.611Z,75.80
2017-07-26T22:37:27.196Z,76.50
2017-07-26T22:39:54.740Z,77.20
2017-07-26T22:42:22.317Z,76.80
2017-07-26T22:44:49.858Z,77.60
2017-07-26T22:47:17.422Z,77.70
2017-07-26T22:49:45.000Z,77.70
2017-07-26T22:52:12.541Z,77.80
2017-07-26T22:54:40.434Z,78.10
2017-07-26T22:57:08.014Z,78.20
2017-07-26T22:59:36.012Z,78.50
2017-07-26T23:02:03.622Z,78.60
2017-07-26T23:04:31.165Z,79.30
2017-07-26T23:06:58.703Z,79.80
2017-07-26T23:09:26.270Z,80.30
2017-07-26T23:11:53.803Z,80.20
2017-07-26T23:14:21.374Z,80.80
2017-07-26T23:16:48.906Z,81.00
2017-07-26T23:19:16.456Z,80.90
2017-07-26T23:21:44.033Z,81.00
2017-07-26T23:24:11.805Z,81.40
2017-07-26T23:26:39.341Z,81.40
2017-07-26T23:29:06.906Z,81.20
2017-07-26T23:31:34.441Z,82.00
2017-07-26T23:34:02.068Z,82.20
2017-07-26T23:36:31.114Z,83.00
2017-07-26T23:38:58.661Z,82.30
2017-07-26T23:41:27.006Z,82.20
2017-07-26T23:43:54.538Z,82.10
2017-07-26T23:46:22.127Z,82.10
2017-07-26T23:48:49.669Z,82.30
2017-07-26T23:51:17.209Z,82.80
2017-07-26T23:53:44.796Z,83.00
2017-07-26T23:56:12.340Z,83.40
2017-07-26T23:58:39.914Z,83.60
